createdAt,value
2018-12-27T00:00:25.744Z,1021.64
2018-12-27T00:01:25.729Z,1021.62
2018-12-27T00:02:25.759Z,1021.66
2018-12-27T00:03:25.753Z,1021.59
2018-12-27T00:04:25.737Z,1021.66
2018-12-27T00:05:25.700Z,1021.64
2018-12-27T00:06:25.673Z,1021.60
2018-12-27T00:07:25.663Z,1021.62
2018-12-27T00:08:25.671Z,1021.59
2018-12-27T00:09:25.701Z,1021.59
2018-12-27T00:10:25.641Z,1021.60
2018-12-27T00:11:25.648Z,1021.63
2018-12-27T00:12:25.615Z,1021.60
2018-12-27T00:13:25.612Z,1021.60
2018-12-27T00:14:25.587Z,1021.55
2018-12-27T00:15:25.573Z,1021.49
2018-12-27T00:16:25.605Z,1021.51
2018-12-27T00:17:25.590Z,1021.51
2018-12-27T00:18:25.559Z,1021.49
2018-12-27T00:19:25.576Z,1021.46
2018-12-27T00:20:25.525Z,1021.50
2018-12-27T00:21:25.562Z,1021.50
2018-12-27T00:22:25.503Z,1021.45
2018-12-27T00:23:25.536Z,1021.47
2018-12-27T00:24:25.512Z,1021.48
2018-12-27T00:25:25.499Z,1021.45
2018-12-27T00:26:25.457Z,1021.49
2018-12-27T00:27:25.488Z,1021.48
2018-12-27T00:28:25.529Z,1021.50
2018-12-27T00:29:26.554Z,1021.44
2018-12-27T00:30:25.421Z,1021.45
2018-12-27T00:31:25.484Z,1021.43
2018-12-27T00:32:25.391Z,1021.41
2018-12-27T00:33:25.420Z,1021.40
2018-12-27T00:34:25.447Z,1021.33
2018-12-27T00:35:25.352Z,1021.37
2018-12-27T00:36:25.346Z,1021.36
2018-12-27T00:37:25.338Z,1021.33
2018-12-27T00:38:25.424Z,1021.28
2018-12-27T00:39:25.372Z,1021.36
2018-12-27T00:40:25.358Z,1021.33
2018-12-27T00:41:25.325Z,1021.33
2018-12-27T00:42:25.370Z,1021.32
2018-12-27T00:43:25.351Z,1021.30
2018-12-27T00:44:25.347Z,1021.27
2018-12-27T00:45:25.349Z,1021.28
2018-12-27T00:46:25.299Z,1021.30
2018-12-27T00:47:25.271Z,1021.30
2018-12-27T00:48:25.253Z,1021.32
2018-12-27T00:49:25.345Z,1021.31
2018-12-27T00:50:25.234Z,1021.33
2018-12-27T00:51:25.189Z,1021.27
2018-12-27T00:52:25.181Z,1021.29
2018-12-27T00:53:25.249Z,1021.36
2018-12-27T00:54:25.220Z,1021.36
2018-12-27T00:55:25.173Z,1021.31
2018-12-27T00:56:25.183Z,1021.31
2018-12-27T00:57:25.263Z,1021.30
2018-12-27T00:58:25.175Z,1021.27
2018-12-27T00:59:25.214Z,1021.29
2018-12-27T01:00:25.147Z,1021.29
2018-12-27T01:01:25.108Z,1021.29
2018-12-27T01:02:25.138Z,1021.31
2018-12-27T01:03:25.068Z,1021.31
2018-12-27T01:04:25.117Z,1021.32
2018-12-27T01:05:25.038Z,1021.31
2018-12-27T01:06:25.100Z,1021.30
2018-12-27T01:07:25.044Z,1021.31
2018-12-27T01:08:25.009Z,1021.31
2018-12-27T01:09:25.055Z,1021.30
2018-12-27T01:10:24.971Z,1021.29
2018-12-27T01:11:24.966Z,1021.28
2018-12-27T01:12:25.031Z,1021.18
2018-12-27T01:13:25.002Z,1021.24
2018-12-27T01:14:24.958Z,1021.29
2018-12-27T01:15:24.977Z,1021.31
2018-12-27T01:16:24.916Z,1021.31
2018-12-27T01:17:24.934Z,1021.23
2018-12-27T01:18:24.928Z,1021.19
2018-12-27T01:19:24.921Z,1021.19
2018-12-27T01:20:24.951Z,1021.22
2018-12-27T01:21:24.858Z,1021.16
2018-12-27T01:22:24.890Z,1021.12
2018-12-27T01:23:24.843Z,1021.19
2018-12-27T01:24:24.821Z,1021.13
2018-12-27T01:25:24.824Z,1021.18
2018-12-27T01:26:24.802Z,1021.12
2018-12-27T01:27:24.796Z,1021.19
2018-12-27T01:28:24.785Z,1021.27
2018-12-27T01:29:24.820Z,1021.23
2018-12-27T01:30:24.764Z,1021.20
2018-12-27T01:31:24.740Z,1021.24
2018-12-27T01:32:24.731Z,1021.28
2018-12-27T01:33:24.725Z,1021.21
2018-12-27T01:34:24.718Z,1021.28
2018-12-27T01:35:24.714Z,1021.21
2018-12-27T01:36:24.778Z,1021.20
2018-12-27T01:37:24.683Z,1021.18
2018-12-27T01:38:24.667Z,1021.15
2018-12-27T01:39:24.667Z,1021.15
2018-12-27T01:40:24.662Z,1021.16
2018-12-27T01:41:24.630Z,1021.22
2018-12-27T01:42:24.623Z,1021.22
2018-12-27T01:43:24.609Z,1021.16
2018-12-27T01:44:24.610Z,1021.22
2018-12-27T01:45:24.610Z,1021.24
2018-12-27T01:46:24.585Z,1021.19
2018-12-27T01:47:24.563Z,1021.19
2018-12-27T01:48:24.563Z,1021.22
2018-12-27T01:49:24.546Z,1021.22
2018-12-27T01:50:25.378Z,1021.28
2018-12-27T01:51:24.527Z,1021.26
2018-12-27T01:52:24.517Z,1021.24
2018-12-27T01:53:24.501Z,1021.29
2018-12-27T01:54:24.495Z,1021.30
2018-12-27T01:55:24.499Z,1021.22
2018-12-27T01:56:24.481Z,1021.27
2018-12-27T01:57:24.464Z,1021.29
2018-12-27T01:58:24.502Z,1021.31
2018-12-27T01:59:24.486Z,1021.29
2018-12-27T02:00:24.463Z,1021.25
2018-12-27T02:01:24.426Z,1021.22
2018-12-27T02:02:24.406Z,1021.25
2018-12-27T02:03:26.585Z,1021.26
2018-12-27T02:04:24.389Z,1021.29
2018-12-27T02:05:24.378Z,1021.21
2018-12-27T02:06:24.384Z,1021.24
2018-12-27T02:07:24.352Z,1021.28
2018-12-27T02:08:24.342Z,1021.27
2018-12-27T02:09:24.328Z,1021.25
2018-12-27T02:10:24.321Z,1021.34
2018-12-27T02:11:24.315Z,1021.29
2018-12-27T02:12:24.292Z,1021.29
2018-12-27T02:13:24.288Z,1021.30
2018-12-27T02:14:24.279Z,1021.32
2018-12-27T02:15:24.268Z,1021.32
2018-12-27T02:16:24.272Z,1021.30
2018-12-27T02:17:24.289Z,1021.31
2018-12-27T02:18:24.277Z,1021.24
2018-12-27T02:19:24.270Z,1021.31
2018-12-27T02:20:24.269Z,1021.26
2018-12-27T02:21:24.282Z,1021.29
2018-12-27T02:22:24.191Z,1021.20
2018-12-27T02:23:24.220Z,1021.22
2018-12-27T02:24:24.219Z,1021.19
2018-12-27T02:25:24.162Z,1021.24
2018-12-27T02:26:24.165Z,1021.23
2018-12-27T02:27:24.175Z,1021.19
2018-12-27T02:28:24.124Z,1021.29
2018-12-27T02:29:24.116Z,1021.20
2018-12-27T02:30:24.145Z,1021.18
2018-12-27T02:31:24.123Z,1021.23
2018-12-27T02:32:24.131Z,1021.23
2018-12-27T02:33:24.134Z,1021.18
2018-12-27T02:34:24.052Z,1021.17
2018-12-27T02:35:24.068Z,1021.18
2018-12-27T02:36:24.153Z,1021.15
2018-12-27T02:37:24.021Z,1021.16
2018-12-27T02:38:24.008Z,1021.20
2018-12-27T02:39:24.020Z,1021.17
2018-12-27T02:40:23.997Z,1021.16
2018-12-27T02:41:23.978Z,1021.12
2018-12-27T02:42:23.990Z,1021.15
2018-12-27T02:43:24.000Z,1021.16
2018-12-27T02:44:23.949Z,1021.19
2018-12-27T02:45:23.941Z,1021.17
2018-12-27T02:46:23.930Z,1021.10
2018-12-27T02:47:24.003Z,1021.11
2018-12-27T02:48:23.905Z,1021.08
2018-12-27T02:49:23.896Z,1021.08
2018-12-27T02:50:23.885Z,1021.04
2018-12-27T02:51:23.889Z,1021.04
2018-12-27T02:52:23.881Z,1021.08
2018-12-27T02:53:23.860Z,1021.01
2018-12-27T02:54:23.862Z,1021.02
2018-12-27T02:55:23.826Z,1020.98
2018-12-27T02:56:23.811Z,1020.90
2018-12-27T02:57:23.830Z,1020.95
2018-12-27T02:58:23.805Z,1020.94
2018-12-27T02:59:23.781Z,1020.98
2018-12-27T03:00:23.772Z,1020.92
2018-12-27T03:01:23.799Z,1020.93
2018-12-27T03:02:23.765Z,1020.94
2018-12-27T03:03:23.739Z,1020.89
2018-12-27T03:04:23.730Z,1020.92
2018-12-27T03:05:23.719Z,1020.89
2018-12-27T03:06:23.707Z,1020.86
2018-12-27T03:07:23.717Z,1020.86
2018-12-27T03:08:23.686Z,1020.86
2018-12-27T03:09:23.672Z,1020.84
2018-12-27T03:10:23.671Z,1020.85
2018-12-27T03:11:23.657Z,1020.84
2018-12-27T03:12:23.662Z,1020.89
2018-12-27T03:13:23.634Z,1020.87
2018-12-27T03:14:23.623Z,1020.88
2018-12-27T03:15:23.608Z,1020.85
2018-12-27T03:16:23.609Z,1020.86
2018-12-27T03:17:23.583Z,1020.84
2018-12-27T03:18:23.592Z,1020.83
2018-12-27T03:19:23.583Z,1020.86
2018-12-27T03:20:23.567Z,1020.78
2018-12-27T03:21:23.543Z,1020.81
2018-12-27T03:22:23.539Z,1020.76
2018-12-27T03:23:23.577Z,1020.77
2018-12-27T03:24:23.517Z,1020.80
2018-12-27T03:25:23.501Z,1020.84
2018-12-27T03:26:23.488Z,1020.81
2018-12-27T03:27:23.477Z,1020.85
2018-12-27T03:28:23.481Z,1020.87
2018-12-27T03:29:23.457Z,1020.86
2018-12-27T03:30:23.447Z,1020.88
2018-12-27T03:31:23.442Z,1020.86
2018-12-27T03:32:23.431Z,1020.81
2018-12-27T03:33:23.437Z,1020.80
2018-12-27T03:34:23.421Z,1020.74
2018-12-27T03:35:23.397Z,1020.75
2018-12-27T03:36:23.380Z,1020.75
2018-12-27T03:37:23.373Z,1020.74
2018-12-27T03:38:23.377Z,1020.80
2018-12-27T03:39:23.349Z,1020.84
2018-12-27T03:40:23.335Z,1020.87
2018-12-27T03:41:23.326Z,1020.81
2018-12-27T03:42:23.316Z,1020.75
2018-12-27T03:43:23.325Z,1020.79
2018-12-27T03:44:23.329Z,1020.80
2018-12-27T03:45:23.288Z,1020.80
2018-12-27T03:46:23.271Z,1020.83
2018-12-27T03:47:23.270Z,1020.76
2018-12-27T03:48:23.263Z,1020.74
2018-12-27T03:49:23.253Z,1020.74
2018-12-27T03:50:23.228Z,1020.77
2018-12-27T03:51:23.217Z,1020.75
2018-12-27T03:52:23.207Z,1020.73
2018-12-27T03:53:23.216Z,1020.68
2018-12-27T03:54:23.185Z,1020.70
2018-12-27T03:55:23.174Z,1020.74
2018-12-27T03:56:23.163Z,1020.72
2018-12-27T03:57:23.152Z,1020.72
2018-12-27T03:58:23.151Z,1020.72
2018-12-27T03:59:23.135Z,1020.70
2018-12-27T04:00:23.124Z,1020.65
2018-12-27T04:01:23.112Z,1020.68
2018-12-27T04:02:23.099Z,1020.69
2018-12-27T04:03:23.117Z,1020.65
2018-12-27T04:04:23.075Z,1020.66
2018-12-27T04:05:23.068Z,1020.71
2018-12-27T04:06:23.054Z,1020.68
2018-12-27T04:07:23.040Z,1020.70
2018-12-27T04:08:23.058Z,1020.67
2018-12-27T04:09:23.016Z,1020.69
2018-12-27T04:10:23.005Z,1020.63
2018-12-27T04:11:23.001Z,1020.64
2018-12-27T04:12:22.985Z,1020.59
2018-12-27T04:13:22.976Z,1020.65
2018-12-27T04:14:22.974Z,1020.62
2018-12-27T04:15:22.951Z,1020.68
2018-12-27T04:16:22.938Z,1020.62
2018-12-27T04:17:22.926Z,1020.64
2018-12-27T04:18:24.385Z,1020.62
2018-12-27T04:19:22.925Z,1020.63
2018-12-27T04:20:22.895Z,1020.61
2018-12-27T04:21:22.883Z,1020.60
2018-12-27T04:22:22.872Z,1020.58
2018-12-27T04:23:22.864Z,1020.58
2018-12-27T04:24:22.868Z,1020.56
2018-12-27T04:25:22.850Z,1020.56
2018-12-27T04:26:22.828Z,1020.57
2018-12-27T04:27:22.816Z,1020.59
2018-12-27T04:28:22.811Z,1020.59
2018-12-27T04:29:22.811Z,1020.54
2018-12-27T04:30:22.784Z,1020.54
2018-12-27T04:31:22.776Z,1020.55
2018-12-27T04:32:22.767Z,1020.53
2018-12-27T04:33:22.756Z,1020.51
2018-12-27T04:34:23.848Z,1020.53
2018-12-27T04:35:22.740Z,1020.51
2018-12-27T04:36:22.727Z,1020.52
2018-12-27T04:37:22.709Z,1020.50
2018-12-27T04:38:22.704Z,1020.48
2018-12-27T04:39:22.710Z,1020.47
2018-12-27T04:40:22.679Z,1020.49
2018-12-27T04:41:22.667Z,1020.51
2018-12-27T04:42:22.656Z,1020.55
2018-12-27T04:43:22.696Z,1020.49
2018-12-27T04:44:22.650Z,1020.49
2018-12-27T04:45:22.627Z,1020.39
2018-12-27T04:46:22.626Z,1020.33
2018-12-27T04:47:22.610Z,1020.36
2018-12-27T04:48:22.597Z,1020.34
2018-12-27T04:49:22.597Z,1020.32
2018-12-27T04:50:29.891Z,1020.35
2018-12-27T04:51:22.564Z,1020.33
2018-12-27T04:52:22.551Z,1020.35
2018-12-27T04:53:22.540Z,1020.33
2018-12-27T04:54:22.544Z,1020.36
2018-12-27T04:55:22.531Z,1020.35
2018-12-27T04:56:22.514Z,1020.31
2018-12-27T04:57:22.502Z,1020.30
2018-12-27T04:58:22.487Z,1020.30
2018-12-27T04:59:22.490Z,1020.30
2018-12-27T05:00:22.476Z,1020.29
2018-12-27T05:01:22.460Z,1020.25
2018-12-27T05:02:22.447Z,1020.16
2018-12-27T05:03:22.440Z,1020.16
2018-12-27T05:04:22.447Z,1020.18
2018-12-27T05:05:22.423Z,1020.16
2018-12-27T05:06:22.403Z,1020.11
2018-12-27T05:07:22.397Z,1020.11
2018-12-27T05:08:22.418Z,1020.13
2018-12-27T05:09:22.423Z,1020.07
2018-12-27T05:10:22.370Z,1020.10
2018-12-27T05:11:22.361Z,1020.12
2018-12-27T05:12:22.346Z,1020.08
2018-12-27T05:13:22.338Z,1020.05
2018-12-27T05:14:22.319Z,1020.07
2018-12-27T05:15:22.324Z,1020.12
2018-12-27T05:16:22.301Z,1020.03
2018-12-27T05:17:22.287Z,1020.06
2018-12-27T05:18:22.276Z,1020.08
2018-12-27T05:19:22.267Z,1020.12
2018-12-27T05:20:22.270Z,1020.15
2018-12-27T05:21:22.257Z,1020.20
2018-12-27T05:22:22.246Z,1020.13
2018-12-27T05:23:22.223Z,1020.17
2018-12-27T05:24:22.216Z,1020.15
2018-12-27T05:25:22.220Z,1020.22
2018-12-27T05:26:22.195Z,1020.17
2018-12-27T05:27:22.187Z,1020.21
2018-12-27T05:28:22.178Z,1020.23
2018-12-27T05:29:22.173Z,1020.25
2018-12-27T05:30:22.172Z,1020.28
2018-12-27T05:31:22.145Z,1020.32
2018-12-27T05:32:22.133Z,1020.35
2018-12-27T05:33:22.128Z,1020.33
2018-12-27T05:34:26.169Z,1020.33
2018-12-27T05:35:22.116Z,1020.29
2018-12-27T05:36:22.104Z,1020.34
2018-12-27T05:37:22.079Z,1020.33
2018-12-27T05:38:22.072Z,1020.30
2018-12-27T05:39:22.060Z,1020.34
2018-12-27T05:40:22.067Z,1020.36
2018-12-27T05:41:22.049Z,1020.31
2018-12-27T05:42:22.029Z,1020.29
2018-12-27T05:43:22.017Z,1020.27
2018-12-27T05:44:22.012Z,1020.29
2018-12-27T05:45:22.027Z,1020.26
2018-12-27T05:46:21.993Z,1020.30
2018-12-27T05:47:21.977Z,1020.26
2018-12-27T05:48:21.968Z,1020.32
2018-12-27T05:49:21.955Z,1020.33
2018-12-27T05:50:21.953Z,1020.32
2018-12-27T05:51:21.939Z,1020.29
2018-12-27T05:52:21.926Z,1020.32
2018-12-27T05:53:21.916Z,1020.32
2018-12-27T05:54:21.907Z,1020.31
2018-12-27T05:55:21.926Z,1020.37
2018-12-27T05:56:21.882Z,1020.38
2018-12-27T05:57:21.872Z,1020.39
2018-12-27T05:58:21.868Z,1020.40
2018-12-27T05:59:21.849Z,1020.40
2018-12-27T06:00:21.839Z,1020.40
2018-12-27T06:01:21.861Z,1020.45
2018-12-27T06:02:21.822Z,1020.42
2018-12-27T06:03:21.814Z,1020.44
2018-12-27T06:04:21.804Z,1020.41
2018-12-27T06:05:21.792Z,1020.44
2018-12-27T06:06:21.795Z,1020.47
2018-12-27T06:07:21.775Z,1020.42
2018-12-27T06:08:21.761Z,1020.42
2018-12-27T06:09:21.757Z,1020.41
2018-12-27T06:10:21.752Z,1020.39
2018-12-27T06:11:21.771Z,1020.43
2018-12-27T06:12:21.724Z,1020.38
2018-12-27T06:13:21.710Z,1020.40
2018-12-27T06:14:21.695Z,1020.45
2018-12-27T06:15:21.685Z,1020.46
2018-12-27T06:16:21.681Z,1020.46
2018-12-27T06:17:21.681Z,1020.42
2018-12-27T06:18:21.659Z,1020.44
2018-12-27T06:19:21.647Z,1020.46
2018-12-27T06:20:21.635Z,1020.48
2018-12-27T06:21:21.626Z,1020.45
2018-12-27T06:22:21.642Z,1020.47
2018-12-27T06:23:21.606Z,1020.46
2018-12-27T06:24:21.593Z,1020.45
2018-12-27T06:25:21.585Z,1020.44
2018-12-27T06:26:21.580Z,1020.51
2018-12-27T06:27:21.582Z,1020.48
2018-12-27T06:28:21.554Z,1020.48
2018-12-27T06:29:21.541Z,1020.43
2018-12-27T06:30:21.532Z,1020.44
2018-12-27T06:31:21.522Z,1020.49
2018-12-27T06:32:21.537Z,1020.47
2018-12-27T06:33:21.558Z,1020.47
2018-12-27T06:34:21.497Z,1020.48
2018-12-27T06:35:21.485Z,1020.59
2018-12-27T06:36:21.469Z,1020.50
2018-12-27T06:37:21.467Z,1020.46
2018-12-27T06:38:21.477Z,1020.48
2018-12-27T06:39:21.439Z,1020.46
2018-12-27T06:40:21.427Z,1020.48
2018-12-27T06:41:21.421Z,1020.46
2018-12-27T06:42:21.405Z,1020.47
2018-12-27T06:43:21.422Z,1020.46
2018-12-27T06:44:21.388Z,1020.42
2018-12-27T06:45:21.376Z,1020.49
2018-12-27T06:46:21.364Z,1020.47
2018-12-27T06:47:21.351Z,1020.41
2018-12-27T06:48:21.359Z,1020.43
2018-12-27T06:49:21.349Z,1020.46
2018-12-27T06:50:22.434Z,1020.51
2018-12-27T06:51:21.317Z,1020.40
2018-12-27T06:52:21.303Z,1020.44
2018-12-27T06:53:21.295Z,1020.42
2018-12-27T06:54:21.311Z,1020.43
2018-12-27T06:55:21.349Z,1020.40
2018-12-27T06:56:21.265Z,1020.36
2018-12-27T06:57:21.252Z,1020.37
2018-12-27T06:58:21.292Z,1020.36
2018-12-27T06:59:21.259Z,1020.34
2018-12-27T07:00:21.233Z,1020.31
2018-12-27T07:01:21.234Z,1020.28
2018-12-27T07:02:21.286Z,1020.29
2018-12-27T07:03:21.257Z,1020.29
2018-12-27T07:04:21.186Z,1020.24
2018-12-27T07:05:21.188Z,1020.29
2018-12-27T07:06:21.208Z,1020.30
2018-12-27T07:07:21.170Z,1020.26
2018-12-27T07:08:21.132Z,1020.26
2018-12-27T07:09:21.127Z,1020.23
2018-12-27T07:10:21.242Z,1020.12
2018-12-27T07:11:21.108Z,1020.17
2018-12-27T07:12:21.098Z,1020.15
2018-12-27T07:13:21.084Z,1020.12
2018-12-27T07:14:21.081Z,1020.10
2018-12-27T07:15:21.079Z,1020.09
2018-12-27T07:16:21.058Z,1020.10
2018-12-27T07:17:21.047Z,1020.09
2018-12-27T07:18:21.045Z,1020.14
2018-12-27T07:19:21.029Z,1020.10
2018-12-27T07:20:21.019Z,1020.10
2018-12-27T07:21:21.018Z,1020.11
2018-12-27T07:22:20.991Z,1020.12
2018-12-27T07:23:20.997Z,1020.18
2018-12-27T07:24:20.973Z,1020.20
2018-12-27T07:25:20.965Z,1020.15
2018-12-27T07:26:20.962Z,1020.15
2018-12-27T07:27:20.937Z,1020.19
2018-12-27T07:28:20.928Z,1020.24
2018-12-27T07:29:20.924Z,1020.20
2018-12-27T07:30:20.904Z,1020.20
2018-12-27T07:31:20.933Z,1020.19
2018-12-27T07:32:20.886Z,1020.24
2018-12-27T07:33:20.883Z,1020.25
2018-12-27T07:34:20.865Z,1020.23
2018-12-27T07:35:20.865Z,1020.27
2018-12-27T07:36:20.843Z,1020.25
2018-12-27T07:37:20.851Z,1020.22
2018-12-27T07:38:20.829Z,1020.21
2018-12-27T07:39:20.818Z,1020.19
2018-12-27T07:40:20.813Z,1020.23
2018-12-27T07:41:20.790Z,1020.23
2018-12-27T07:42:20.802Z,1020.25
2018-12-27T07:43:20.778Z,1020.21
2018-12-27T07:44:20.761Z,1020.21
2018-12-27T07:45:20.751Z,1020.19
2018-12-27T07:46:20.736Z,1020.24
2018-12-27T07:47:20.753Z,1020.14
2018-12-27T07:48:20.715Z,1020.10
2018-12-27T07:49:20.708Z,1020.13
2018-12-27T07:50:20.695Z,1020.11
2018-12-27T07:51:20.686Z,1020.12
2018-12-27T07:52:20.685Z,1020.12
2018-12-27T07:53:20.685Z,1020.25
2018-12-27T07:54:20.663Z,1020.27
2018-12-27T07:55:20.649Z,1020.40
2018-12-27T07:56:20.633Z,1020.45
2018-12-27T07:57:20.624Z,1020.50
2018-12-27T07:58:20.634Z,1020.45
2018-12-27T07:59:20.607Z,1020.43
2018-12-27T08:00:20.594Z,1020.42
2018-12-27T08:01:20.582Z,1020.38
2018-12-27T08:02:20.577Z,1020.42
2018-12-27T08:03:20.581Z,1020.46
2018-12-27T08:04:20.557Z,1020.37
2018-12-27T08:05:20.543Z,1020.37
2018-12-27T08:06:20.534Z,1020.35
2018-12-27T08:07:20.519Z,1020.29
2018-12-27T08:08:20.523Z,1020.38
2018-12-27T08:09:20.501Z,1020.30
2018-12-27T08:10:20.504Z,1020.38
2018-12-27T08:11:20.498Z,1020.34
2018-12-27T08:12:20.467Z,1020.35
2018-12-27T08:13:20.473Z,1020.41
2018-12-27T08:14:20.452Z,1020.40
2018-12-27T08:15:20.439Z,1020.40
2018-12-27T08:16:20.424Z,1020.37
2018-12-27T08:17:20.413Z,1020.39
2018-12-27T08:18:20.437Z,1020.42
2018-12-27T08:19:20.393Z,1020.42
2018-12-27T08:20:20.384Z,1020.42
2018-12-27T08:21:20.371Z,1020.38
2018-12-27T08:22:20.368Z,1020.38
2018-12-27T08:23:20.351Z,1020.35
2018-12-27T08:24:20.365Z,1020.34
2018-12-27T08:25:20.333Z,1020.35
2018-12-27T08:26:20.338Z,1020.32
2018-12-27T08:27:20.345Z,1020.32
2018-12-27T08:28:20.348Z,1020.31
2018-12-27T08:29:20.314Z,1020.35
2018-12-27T08:30:20.297Z,1020.32
2018-12-27T08:31:20.291Z,1020.30
2018-12-27T08:32:20.268Z,1020.35
2018-12-27T08:33:20.272Z,1020.30
2018-12-27T08:34:20.264Z,1020.26
2018-12-27T08:35:20.241Z,1020.31
2018-12-27T08:36:20.269Z,1020.29
2018-12-27T08:37:20.214Z,1020.28
2018-12-27T08:38:20.203Z,1020.27
2018-12-27T08:39:20.265Z,1020.21
2018-12-27T08:40:20.197Z,1020.23
2018-12-27T08:41:20.165Z,1020.26
2018-12-27T08:42:20.251Z,1020.26
2018-12-27T08:43:20.144Z,1020.26
2018-12-27T08:44:20.232Z,1020.28
2018-12-27T08:45:20.155Z,1020.25
2018-12-27T08:46:20.116Z,1020.27
2018-12-27T08:47:20.097Z,1020.27
2018-12-27T08:48:20.175Z,1020.26
2018-12-27T08:49:20.269Z,1020.24
2018-12-27T08:50:20.065Z,1020.23
2018-12-27T08:51:20.064Z,1020.29
2018-12-27T08:52:20.057Z,1020.29
2018-12-27T08:53:20.037Z,1020.31
2018-12-27T08:54:20.101Z,1020.25
2018-12-27T08:55:20.019Z,1020.30
2018-12-27T08:56:20.065Z,1020.31
2018-12-27T08:57:20.036Z,1020.32
2018-12-27T08:58:20.042Z,1020.27
2018-12-27T08:59:20.032Z,1020.26
2018-12-27T09:00:20.067Z,1020.21
2018-12-27T09:01:20.012Z,1020.21
2018-12-27T09:02:19.963Z,1020.21
2018-12-27T09:03:19.942Z,1020.19
2018-12-27T09:04:19.923Z,1020.19
2018-12-27T09:05:19.931Z,1020.16
2018-12-27T09:06:19.901Z,1020.15
2018-12-27T09:07:19.893Z,1020.17
2018-12-27T09:08:19.923Z,1020.21
2018-12-27T09:09:19.870Z,1020.19
2018-12-27T09:10:19.876Z,1020.12
2018-12-27T09:11:19.842Z,1020.15
2018-12-27T09:12:19.834Z,1020.13
2018-12-27T09:13:19.828Z,1020.14
2018-12-27T09:14:19.811Z,1020.17
2018-12-27T09:15:19.823Z,1020.12
2018-12-27T09:16:19.790Z,1020.16
2018-12-27T09:17:19.787Z,1020.16
2018-12-27T09:18:19.790Z,1020.22
2018-12-27T09:19:19.767Z,1020.16
2018-12-27T09:20:19.772Z,1020.17
2018-12-27T09:21:19.739Z,1020.14
2018-12-27T09:22:19.723Z,1020.20
2018-12-27T09:23:19.718Z,1020.20
2018-12-27T09:24:19.742Z,1020.20
2018-12-27T09:25:19.732Z,1020.12
2018-12-27T09:26:19.723Z,1020.17
2018-12-27T09:27:26.954Z,1020.18
2018-12-27T09:28:19.670Z,1020.19
2018-12-27T09:29:19.659Z,1020.14
2018-12-27T09:30:19.655Z,1020.17
2018-12-27T09:31:19.648Z,1020.13
2018-12-27T09:32:19.621Z,1020.15
2018-12-27T09:33:19.611Z,1020.17
2018-12-27T09:34:19.609Z,1020.13
2018-12-27T09:35:26.108Z,1020.18
2018-12-27T09:36:20.650Z,1020.23
2018-12-27T09:37:19.573Z,1020.23
2018-12-27T09:38:19.552Z,1020.20
2018-12-27T09:39:19.548Z,1020.23
2018-12-27T09:40:19.556Z,1020.13
2018-12-27T09:41:19.537Z,1020.20
2018-12-27T09:42:19.518Z,1020.21
2018-12-27T09:43:19.545Z,1020.22
2018-12-27T09:44:19.493Z,1020.21
2018-12-27T09:45:19.505Z,1020.21
2018-12-27T09:46:19.471Z,1020.20
2018-12-27T09:47:19.462Z,1020.21
2018-12-27T09:48:19.476Z,1020.15
2018-12-27T09:49:19.445Z,1020.21
2018-12-27T09:50:19.451Z,1020.23
2018-12-27T09:51:19.497Z,1020.18
2018-12-27T09:52:19.452Z,1020.17
2018-12-27T09:53:19.405Z,1020.11
2018-12-27T09:54:19.405Z,1020.14
2018-12-27T09:55:19.428Z,1020.13
2018-12-27T09:56:19.381Z,1020.11
2018-12-27T09:57:19.365Z,1020.10
2018-12-27T09:58:19.349Z,1020.12
2018-12-27T09:59:19.334Z,1020.11
2018-12-27T10:00:19.328Z,1020.06
2018-12-27T10:01:19.336Z,1020.08
2018-12-27T10:02:19.311Z,1020.07
2018-12-27T10:03:19.304Z,1020.02
2018-12-27T10:04:19.282Z,1020.01
2018-12-27T10:05:19.281Z,1020.02
2018-12-27T10:06:19.301Z,1020.00
2018-12-27T10:07:19.256Z,1020.00
2018-12-27T10:08:19.264Z,1019.97
2018-12-27T10:09:19.285Z,1019.95
2018-12-27T10:10:19.269Z,1019.90
2018-12-27T10:11:19.378Z,1019.93
2018-12-27T10:12:19.234Z,1019.94
2018-12-27T10:13:19.329Z,1019.88
2018-12-27T10:14:19.198Z,1019.88
2018-12-27T10:15:19.236Z,1019.87
2018-12-27T10:16:19.258Z,1019.88
2018-12-27T10:17:19.285Z,1019.87
2018-12-27T10:18:19.158Z,1019.83
2018-12-27T10:19:19.124Z,1019.85
2018-12-27T10:20:19.151Z,1019.85
2018-12-27T10:21:19.145Z,1019.83
2018-12-27T10:22:19.101Z,1019.82
2018-12-27T10:23:19.083Z,1019.79
2018-12-27T10:24:19.084Z,1019.79
2018-12-27T10:25:19.260Z,1019.79
2018-12-27T10:26:19.082Z,1019.73
2018-12-27T10:27:19.090Z,1019.67
2018-12-27T10:28:19.074Z,1019.73
2018-12-27T10:29:19.090Z,1019.76
2018-12-27T10:30:19.048Z,1019.73
2018-12-27T10:31:19.014Z,1019.73
2018-12-27T10:32:19.012Z,1019.71
2018-12-27T10:33:18.983Z,1019.74
2018-12-27T10:34:18.974Z,1019.73
2018-12-27T10:35:18.962Z,1019.72
2018-12-27T10:36:19.018Z,1019.68
2018-12-27T10:37:19.012Z,1019.72
2018-12-27T10:38:18.989Z,1019.70
2018-12-27T10:39:18.980Z,1019.62
2018-12-27T10:40:18.906Z,1019.70
2018-12-27T10:41:18.902Z,1019.64
2018-12-27T10:42:18.918Z,1019.59
2018-12-27T10:43:18.883Z,1019.58
2018-12-27T10:44:18.874Z,1019.59
2018-12-27T10:45:18.867Z,1019.58
2018-12-27T10:46:18.900Z,1019.58
2018-12-27T10:47:19.033Z,1019.54
2018-12-27T10:48:18.895Z,1019.55
2018-12-27T10:49:18.820Z,1019.57
2018-12-27T10:50:18.848Z,1019.53
2018-12-27T10:51:18.799Z,1019.56
2018-12-27T10:52:18.795Z,1019.51
2018-12-27T10:53:18.772Z,1019.49
2018-12-27T10:54:18.782Z,1019.48
2018-12-27T10:55:18.754Z,1019.50
2018-12-27T10:56:18.749Z,1019.47
2018-12-27T10:57:18.810Z,1019.47
2018-12-27T10:58:18.723Z,1019.40
2018-12-27T10:59:18.713Z,1019.45
2018-12-27T11:00:18.729Z,1019.43
2018-12-27T11:01:18.730Z,1019.36
2018-12-27T11:02:18.698Z,1019.38
2018-12-27T11:03:18.670Z,1019.36
2018-12-27T11:04:18.658Z,1019.31
2018-12-27T11:05:18.668Z,1019.29
2018-12-27T11:06:18.640Z,1019.27
2018-12-27T11:07:18.640Z,1019.28
2018-12-27T11:08:18.621Z,1019.26
2018-12-27T11:09:18.619Z,1019.30
2018-12-27T11:10:18.608Z,1019.26
2018-12-27T11:11:18.611Z,1019.24
2018-12-27T11:12:18.596Z,1019.26
2018-12-27T11:13:18.561Z,1019.26
2018-12-27T11:14:18.554Z,1019.27
2018-12-27T11:15:18.603Z,1019.19
2018-12-27T11:16:18.554Z,1019.24
2018-12-27T11:17:18.589Z,1019.15
2018-12-27T11:18:18.519Z,1019.19
2018-12-27T11:19:18.523Z,1019.17
2018-12-27T11:20:18.520Z,1019.22
2018-12-27T11:21:18.485Z,1019.14
2018-12-27T11:22:18.482Z,1019.16
2018-12-27T11:23:18.479Z,1019.12
2018-12-27T11:24:18.454Z,1019.12
2018-12-27T11:25:18.445Z,1019.12
2018-12-27T11:26:18.449Z,1019.09
2018-12-27T11:27:18.416Z,1019.13
2018-12-27T11:28:18.419Z,1019.04
2018-12-27T11:29:18.405Z,1019.12
2018-12-27T11:30:18.442Z,1019.09
2018-12-27T11:31:18.370Z,1019.08
2018-12-27T11:32:18.362Z,1019.07
2018-12-27T11:33:18.368Z,1019.11
2018-12-27T11:34:18.349Z,1019.03
2018-12-27T11:35:18.330Z,1019.00
2018-12-27T11:36:18.333Z,1019.01
2018-12-27T11:37:18.308Z,1019.07
2018-12-27T11:38:18.318Z,1019.06
2018-12-27T11:39:18.288Z,1019.07
2018-12-27T11:40:18.283Z,1019.04
2018-12-27T11:41:18.269Z,1019.03
2018-12-27T11:42:18.268Z,1019.04
2018-12-27T11:43:18.273Z,1019.06
2018-12-27T11:44:18.238Z,1019.10
2018-12-27T11:45:18.227Z,1019.06
2018-12-27T11:46:18.214Z,1019.05
2018-12-27T11:47:18.210Z,1019.03
2018-12-27T11:48:18.230Z,1019.04
2018-12-27T11:49:18.180Z,1019.05
2018-12-27T11:50:18.174Z,1019.02
2018-12-27T11:51:18.156Z,1019.06
2018-12-27T11:52:18.152Z,1019.07
2018-12-27T11:53:18.173Z,1019.04
2018-12-27T11:54:18.133Z,1019.09
2018-12-27T11:55:18.123Z,1019.06
2018-12-27T11:56:18.120Z,1019.07
2018-12-27T11:57:18.162Z,1019.06
2018-12-27T11:58:18.116Z,1019.10
2018-12-27T11:59:18.137Z,1019.13
2018-12-27T12:00:18.073Z,1019.09
2018-12-27T12:01:18.054Z,1019.14
2018-12-27T12:02:18.057Z,1019.17
2018-12-27T12:03:18.112Z,1019.14
2018-12-27T12:04:18.046Z,1019.21
2018-12-27T12:05:18.040Z,1019.24